Time;durP1;ratioP1;P1;durP2;ratioP2;P2;SDS_P1;SDS_P2;PMS_P1;PMS_P2;Temp;Humidity;BMP_temperature;BMP_pressure;BME280_temperature;BME280_humidity;BME280_pressure;Samples;Min_cycle;Max_cycle;Signal;HPM_P1;HPM_P2
2021/01/18 00:01:23;;;;;;;130.02;66.68;;;-2.00;99.90;;;;;;4977228;28;20466;-88
2021/01/18 00:03:49;;;;;;;143.15;70.68;;;-2.10;99.90;;;;;;4977076;28;20050;-86
2021/01/18 00:06:19;;;;;;;145.65;68.65;;;-2.10;99.90;;;;;;4977095;28;20112;-86
2021/01/18 00:08:46;;;;;;;113.73;54.83;;;-2.20;99.90;;;;;;4977066;28;20100;-85
2021/01/18 00:11:18;;;;;;;151.82;72.85;;;-2.30;99.90;;;;;;4976973;28;20026;-84
2021/01/18 00:13:46;;;;;;;138.85;67.13;;;-2.30;99.90;;;;;;4976960;28;20030;-86
2021/01/18 00:16:14;;;;;;;137.50;66.15;;;-2.30;99.90;;;;;;4976942;28;20034;-86
2021/01/18 00:18:40;;;;;;;136.90;64.60;;;-2.40;99.90;;;;;;4994519;28;20101;-86
2021/01/18 00:21:06;;;;;;;125.93;60.60;;;-2.40;99.90;;;;;;4976629;28;20117;-85
2021/01/18 00:23:32;;;;;;;120.75;61.28;;;-2.40;99.90;;;;;;4994594;28;20490;-85
2021/01/18 00:25:58;;;;;;;124.63;61.20;;;-2.40;99.90;;;;;;4976867;28;20481;-85
2021/01/18 00:28:24;;;;;;;133.77;67.57;;;-2.40;99.90;;;;;;4994236;28;20420;-85
2021/01/18 00:30:49;;;;;;;145.95;69.55;;;-2.40;99.90;;;;;;4994506;28;20030;-85
2021/01/18 00:33:15;;;;;;;129.93;62.90;;;-2.50;99.90;;;;;;4994167;28;20027;-85
2021/01/18 00:35:41;;;;;;;127.50;62.03;;;-2.50;99.90;;;;;;4994378;28;20088;-85
2021/01/18 00:38:07;;;;;;;127.28;61.90;;;-2.50;99.90;;;;;;4976717;28;20113;-84
2021/01/18 00:40:33;;;;;;;136.57;62.95;;;-2.50;99.90;;;;;;4994093;28;20026;-86
2021/01/18 00:42:59;;;;;;;114.30;58.72;;;-2.50;99.90;;;;;;4976670;28;20109;-86
2021/01/18 00:45:25;;;;;;;114.07;53.75;;;-2.50;99.90;;;;;;4976615;28;20454;-86
2021/01/18 00:47:53;;;;;;;112.85;56.65;;;-2.40;99.90;;;;;;4976635;28;20026;-86
2021/01/18 00:50:27;;;;;;;113.47;56.03;;;-2.40;99.90;;;;;;4994063;28;20034;-86
2021/01/18 00:52:54;;;;;;;110.18;53.15;;;-2.50;99.90;;;;;;4976605;28;20521;-85
2021/01/18 00:55:22;;;;;;;117.75;56.88;;;-2.50;99.90;;;;;;4976466;28;20420;-85
2021/01/18 00:57:48;;;;;;;132.38;60.92;;;-2.40;99.90;;;;;;4976510;28;20034;-86
2021/01/18 01:00:17;;;;;;;125.38;58.95;;;-2.50;99.90;;;;;;4976506;28;20022;-85
2021/01/18 01:02:45;;;;;;;117.15;57.38;;;-2.50;99.90;;;;;;4976366;28;20490;-84
2021/01/18 01:05:18;;;;;;;113.20;54.97;;;-2.40;99.90;;;;;;4976450;28;20027;-84
2021/01/18 01:07:54;;;;;;;84.35;47.10;;;-2.50;99.90;;;;;;4976451;28;20100;-84
2021/01/18 01:10:22;;;;;;;93.70;46.72;;;-2.50;99.90;;;;;;4993903;28;20095;-84
2021/01/18 01:13:00;;;;;;;101.18;49.45;;;-2.50;99.90;;;;;;4976465;28;20030;-86
2021/01/18 01:15:26;;;;;;;103.40;47.42;;;-2.50;99.90;;;;;;4976355;28;20176;-86
2021/01/18 01:17:53;;;;;;;97.75;49.65;;;-2.60;99.90;;;;;;4993755;28;20027;-86
2021/01/18 01:20:20;;;;;;;106.75;50.17;;;-2.60;99.90;;;;;;4976351;28;20109;-86
2021/01/18 01:22:46;;;;;;;92.20;48.80;;;-2.60;99.90;;;;;;4976360;28;20129;-86
2021/01/18 01:25:14;;;;;;;103.63;50.58;;;-2.60;99.90;;;;;;4976364;28;20031;-85
2021/01/18 01:27:41;;;;;;;92.82;48.58;;;-2.70;99.90;;;;;;4976367;28;20031;-85
2021/01/18 01:30:09;;;;;;;98.38;50.80;;;-2.70;99.90;;;;;;4976184;28;20121;-84
2021/01/18 01:32:40;;;;;;;99.70;49.22;;;-2.60;99.90;;;;;;4976240;28;20027;-84
2021/01/18 01:35:06;;;;;;;;;;;-2.70;99.90;;;;;;4979762;28;20032;-84
2021/01/18 01:37:32;;;;;;;104.32;49.63;;;-2.70;99.90;;;;;;4997237;28;19909;-84
2021/01/18 01:39:57;;;;;;;106.65;52.72;;;-2.70;99.90;;;;;;4997139;28;20085;-85
2021/01/18 01:42:24;;;;;;;111.78;51.47;;;-2.80;99.90;;;;;;4979690;28;20023;-85
2021/01/18 01:44:50;;;;;;;103.40;52.53;;;-2.80;99.90;;;;;;4979528;28;20022;-85
2021/01/18 01:47:45;;;;;;;99.45;50.95;;;-2.80;99.90;;;;;;4979589;28;20472;-85
2021/01/18 01:50:12;;;;;;;107.20;53.75;;;-2.80;99.90;;;;;;4974233;28;20085;-84
2021/01/18 01:52:47;;;;;;;101.45;50.75;;;-2.80;99.90;;;;;;4997097;28;20031;-84
2021/01/18 01:55:23;;;;;;;120.05;52.88;;;-2.80;99.90;;;;;;4979437;28;20030;-84
2021/01/18 01:57:49;;;;;;;115.00;56.17;;;-2.90;99.90;;;;;;4979365;28;20030;-84
2021/01/18 02:00:16;;;;;;;122.97;58.95;;;-2.90;99.90;;;;;;4996782;28;20034;-84
2021/01/18 02:02:42;;;;;;;132.73;61.65;;;-2.90;99.90;;;;;;4979135;28;20105;-84
2021/01/18 02:05:13;;;;;;;142.48;61.63;;;-2.90;99.90;;;;;;4979185;28;20026;-83
2021/01/18 02:07:40;;;;;;;147.18;65.30;;;-3.00;99.90;;;;;;4979222;28;20022;-83
2021/01/18 02:10:07;;;;;;;249.93;106.47;;;-3.00;99.90;;;;;;4996569;28;20026;-83
2021/01/18 02:12:32;;;;;;;157.07;65.85;;;-3.00;99.90;;;;;;4996557;28;20030;-83
2021/01/18 02:15:07;;;;;;;160.43;65.43;;;-3.00;99.90;;;;;;4996574;28;20029;-82
2021/01/18 02:17:56;;;;;;;161.20;68.28;;;-3.00;99.90;;;;;;4996571;28;20109;-83
2021/01/18 02:20:37;;;;;;;180.82;72.25;;;-2.90;99.90;;;;;;4995982;28;20022;-83
2021/01/18 02:23:40;;;;;;;150.50;66.25;;;-2.90;99.90;;;;;;4978853;28;20027;-82
2021/01/18 02:26:12;;;;;;;151.43;64.00;;;-2.90;99.90;;;;;;4978849;28;20022;-83
2021/01/18 02:29:10;;;;;;;167.25;67.07;;;-2.80;99.90;;;;;;4996178;28;20049;-83
2021/01/18 02:32:02;;;;;;;139.27;66.03;;;-2.80;99.90;;;;;;4974553;28;20822;-83
2021/01/18 02:34:59;;;;;;;145.55;59.35;;;-2.80;99.90;;;;;;4978790;28;20018;-86
2021/01/18 02:37:37;;;;;;;117.85;50.47;;;-2.70;99.90;;;;;;4978645;28;20494;-86
2021/01/18 02:40:11;;;;;;;113.43;49.75;;;-2.80;99.90;;;;;;4978742;28;20061;-86
2021/01/18 02:43:08;;;;;;;110.03;46.15;;;-2.80;99.90;;;;;;4978700;28;20117;-86
2021/01/18 02:45:36;;;;;;;135.85;51.05;;;-2.80;99.90;;;;;;4995575;28;20386;-84
2021/01/18 02:48:02;;;;;;;111.22;50.10;;;-2.80;99.90;;;;;;4978470;28;20030;-85
2021/01/18 02:50:30;;;;;;;110.30;47.92;;;-2.90;99.90;;;;;;4978806;28;20069;-85
2021/01/18 02:52:56;;;;;;;134.93;58.17;;;-2.90;99.90;;;;;;4995855;28;20405;-84
2021/01/18 02:55:22;;;;;;;134.90;56.30;;;-2.80;99.90;;;;;;4978399;28;20370;-84
2021/01/18 02:57:51;;;;;;;153.77;61.85;;;-2.80;99.90;;;;;;4995901;28;20109;-84
2021/01/18 03:00:25;;;;;;;133.98;56.92;;;-2.80;99.90;;;;;;4978233;28;20030;-84
2021/01/18 03:03:14;;;;;;;119.80;51.35;;;-2.80;99.90;;;;;;4978131;28;20186;-85
2021/01/18 03:05:46;;;;;;;104.93;48.95;;;-2.80;99.90;;;;;;4986422;28;20093;-85
2021/01/18 03:08:17;;;;;;;96.88;44.22;;;-2.70;99.90;;;;;;4978232;28;20030;-85
2021/01/18 03:10:54;;;;;;;90.85;44.17;;;-2.70;99.90;;;;;;4978133;28;20117;-83
2021/01/18 03:13:26;;;;;;;85.53;43.92;;;-2.60;99.90;;;;;;4995646;28;20026;-83
2021/01/18 03:15:58;;;;;;;83.13;41.88;;;-2.60;99.90;;;;;;4977950;28;20019;-83
2021/01/18 03:18:27;;;;;;;90.82;42.33;;;-2.60;99.90;;;;;;4977897;28;20533;-83
2021/01/18 03:20:56;;;;;;;95.57;44.08;;;-2.60;99.90;;;;;;4995254;28;20041;-84
2021/01/18 03:23:22;;;;;;;91.22;42.00;;;-2.60;99.90;;;;;;4977910;28;20030;-85
2021/01/18 03:25:55;;;;;;;87.72;44.28;;;-2.60;99.90;;;;;;4977920;28;20053;-85
2021/01/18 03:28:23;;;;;;;84.95;41.63;;;-2.60;99.90;;;;;;4995210;28;20507;-86
2021/01/18 03:30:49;;;;;;;86.97;42.88;;;-2.50;99.90;;;;;;4978272;28;20412;-86
2021/01/18 03:33:17;;;;;;;97.57;49.58;;;-2.50;99.90;;;;;;4977709;28;20018;-86
2021/01/18 03:35:43;;;;;;;95.00;49.60;;;-2.60;99.90;;;;;;4995171;28;20026;-85
2021/01/18 03:38:10;;;;;;;92.85;44.85;;;-2.50;99.90;;;;;;4977154;28;20030;-84
2021/01/18 03:40:37;;;;;;;100.60;47.55;;;-2.50;99.90;;;;;;4977530;28;20054;-84
2021/01/18 03:43:07;;;;;;;103.72;47.90;;;-2.60;99.90;;;;;;4977394;28;20037;-84
2021/01/18 03:45:36;;;;;;;97.00;45.92;;;-2.60;99.90;;;;;;4977549;28;20101;-84
2021/01/18 03:48:04;;;;;;;101.20;46.72;;;-2.70;99.90;;;;;;4977427;28;20022;-84
2021/01/18 03:50:29;;;;;;;105.50;48.90;;;-2.70;99.90;;;;;;4977282;28;20022;-84
2021/01/18 03:52:55;;;;;;;98.28;47.47;;;-2.80;99.90;;;;;;4977317;28;20027;-84
2021/01/18 03:55:21;;;;;;;104.03;48.65;;;-2.80;99.90;;;;;;4994611;28;20026;-84
2021/01/18 03:57:52;;;;;;;109.80;49.33;;;-2.80;99.90;;;;;;4976559;28;20062;-84
2021/01/18 04:00:21;;;;;;;102.30;44.67;;;-2.80;99.90;;;;;;4994864;28;20034;-84
2021/01/18 04:02:47;;;;;;;98.00;43.55;;;-2.90;99.90;;;;;;4976834;28;20042;-84
2021/01/18 04:05:14;;;;;;;106.97;47.08;;;-2.80;99.90;;;;;;4994565;28;20023;-85
2021/01/18 04:07:41;;;;;;;98.30;47.25;;;-2.90;99.90;;;;;;4977047;28;20031;-84
2021/01/18 04:10:08;;;;;;;98.78;46.22;;;-2.90;99.90;;;;;;4976919;28;20087;-84
2021/01/18 04:12:37;;;;;;;103.68;48.45;;;-3.00;99.90;;;;;;4994460;28;20034;-85
2021/01/18 04:15:03;;;;;;;95.72;44.95;;;-3.10;99.90;;;;;;4976904;28;20042;-85
2021/01/18 04:17:29;;;;;;;112.38;50.17;;;-3.20;99.90;;;;;;4976856;28;20474;-85
2021/01/18 04:19:55;;;;;;;116.38;49.75;;;-3.20;99.90;;;;;;4976780;28;20034;-84
2021/01/18 04:22:21;;;;;;;114.93;50.53;;;-3.30;99.90;;;;;;4976873;28;20033;-84
2021/01/18 04:24:46;;;;;;;142.32;64.88;;;-3.40;99.90;;;;;;4994243;28;20509;-84
2021/01/18 04:27:12;;;;;;;114.47;54.13;;;-3.40;99.90;;;;;;4976684;28;20073;-84
2021/01/18 04:29:38;;;;;;;122.00;52.00;;;-3.50;99.90;;;;;;4976743;28;20026;-84
2021/01/18 04:32:04;;;;;;;125.38;55.53;;;-3.50;99.90;;;;;;4976758;28;20474;-84
2021/01/18 04:34:30;;;;;;;114.53;53.83;;;-3.50;99.90;;;;;;4976744;28;20030;-85
2021/01/18 04:36:56;;;;;;;126.53;53.67;;;-3.50;99.90;;;;;;4976550;28;20031;-85
2021/01/18 04:39:21;;;;;;;119.38;54.13;;;-3.50;99.90;;;;;;4994162;28;20032;-85
2021/01/18 04:41:47;;;;;;;128.50;56.20;;;-3.50;99.90;;;;;;4976498;28;20022;-84
2021/01/18 04:44:18;;;;;;;127.20;57.03;;;-3.60;99.90;;;;;;4976659;28;20031;-85
2021/01/18 04:46:46;;;;;;;132.50;57.70;;;-3.50;99.90;;;;;;4976363;28;20437;-84
2021/01/18 04:49:14;;;;;;;108.60;49.38;;;-3.50;99.90;;;;;;4993968;28;20109;-84
2021/01/18 04:51:51;;;;;;;108.68;50.40;;;-3.50;99.90;;;;;;4994009;28;20076;-84
2021/01/18 04:54:23;;;;;;;107.57;49.63;;;-3.50;99.90;;;;;;4994017;28;20046;-84
2021/01/18 04:57:11;;;;;;;111.95;50.95;;;-3.50;99.90;;;;;;4993965;28;20030;-84
2021/01/18 04:59:47;;;;;;;138.98;58.88;;;-3.50;99.90;;;;;;4994117;28;20030;-85
2021/01/18 05:02:15;;;;;;;136.70;65.32;;;-3.50;99.90;;;;;;4976357;28;20030;-83
2021/01/18 05:04:46;;;;;;;183.30;88.85;;;-3.60;99.90;;;;;;4993904;28;20034;-82
2021/01/18 05:07:32;;;;;;;140.30;64.80;;;-3.60;99.90;;;;;;4994503;28;20037;-82
2021/01/18 05:10:10;;;;;;;120.32;56.25;;;-3.60;99.90;;;;;;4997952;28;20473;-82
2021/01/18 05:12:40;;;;;;;119.47;57.42;;;-3.60;99.90;;;;;;4998055;28;20026;-82
2021/01/18 05:15:10;;;;;;;110.82;54.35;;;-3.60;99.90;;;;;;4997710;28;20037;-82
2021/01/18 05:17:43;;;;;;;127.38;57.33;;;-3.70;99.90;;;;;;4997474;28;20023;-81
2021/01/18 05:20:14;;;;;;;121.05;56.00;;;-3.80;99.90;;;;;;4997467;28;20022;-81
2021/01/18 05:22:42;;;;;;;97.68;49.50;;;-3.80;99.90;;;;;;4997529;28;20394;-81
2021/01/18 05:25:09;;;;;;;118.97;57.53;;;-3.90;99.90;;;;;;4997472;28;20030;-81
2021/01/18 05:28:05;;;;;;;129.13;61.65;;;-4.00;99.90;;;;;;4997597;28;20022;-81
2021/01/18 05:30:40;;;;;;;133.80;58.47;;;-4.10;99.90;;;;;;4979909;28;20026;-81
2021/01/18 05:33:12;;;;;;;134.05;61.25;;;-4.20;99.90;;;;;;4979800;28;20486;-81
2021/01/18 05:35:40;;;;;;;170.80;67.75;;;-4.20;99.90;;;;;;4979726;28;20034;-81
2021/01/18 05:38:12;;;;;;;167.60;72.65;;;-4.20;99.90;;;;;;4979721;28;20110;-82
2021/01/18 05:40:48;;;;;;;163.65;73.88;;;-4.30;99.90;;;;;;4997203;28;20030;-82
2021/01/18 05:43:16;;;;;;;172.98;76.57;;;-4.40;99.90;;;;;;4979673;28;20463;-82
2021/01/18 05:45:43;;;;;;;187.05;86.97;;;-4.40;99.90;;;;;;4997097;28;20030;-82
2021/01/18 05:48:10;;;;;;;199.77;87.07;;;-4.40;99.90;;;;;;4979660;28;20022;-82
2021/01/18 05:50:38;;;;;;;187.85;82.80;;;-4.50;99.90;;;;;;4996995;28;20026;-82
2021/01/18 05:53:29;;;;;;;164.52;80.03;;;-4.50;99.90;;;;;;4979399;28;20026;-81
2021/01/18 05:55:55;;;;;;;167.85;81.18;;;-4.50;99.90;;;;;;4979291;28;20060;-81
2021/01/18 05:58:34;;;;;;;182.73;86.38;;;-4.40;99.90;;;;;;4997104;28;20057;-81
2021/01/18 06:01:00;;;;;;;198.48;87.70;;;-4.50;99.90;;;;;;4979353;28;20027;-81
2021/01/18 06:03:31;;;;;;;186.20;92.10;;;-4.50;99.90;;;;;;4979079;28;20104;-83
2021/01/18 06:05:58;;;;;;;198.38;90.15;;;-4.50;99.90;;;;;;4979296;28;20022;-83
2021/01/18 06:08:25;;;;;;;221.27;101.75;;;-4.50;99.90;;;;;;4996680;28;20022;-83
2021/01/18 06:10:52;;;;;;;201.38;93.93;;;-4.50;99.90;;;;;;4979104;28;20018;-83
2021/01/18 06:13:26;;;;;;;203.35;99.07;;;-4.40;99.90;;;;;;4979095;28;20030;-83
2021/01/18 06:16:11;;;;;;;225.45;107.40;;;-4.40;99.90;;;;;;4979032;28;20072;-83
2021/01/18 06:18:39;;;;;;;194.65;90.63;;;-4.40;99.90;;;;;;4978678;28;20058;-83
2021/01/18 06:21:08;;;;;;;222.95;101.57;;;-4.30;99.90;;;;;;4978585;28;20092;-83
2021/01/18 06:23:35;;;;;;;274.55;130.73;;;-4.30;99.90;;;;;;4978833;28;20026;-83
2021/01/18 06:26:01;;;;;;;246.50;115.82;;;-4.30;99.90;;;;;;4996323;28;20080;-83
2021/01/18 06:28:29;;;;;;;209.63;101.95;;;-4.40;99.90;;;;;;4996222;28;20026;-83
2021/01/18 06:31:09;;;;;;;205.73;98.30;;;-4.30;99.90;;;;;;4978665;28;20027;-83
2021/01/18 06:33:42;;;;;;;210.55;96.93;;;-4.30;99.90;;;;;;4996143;28;20436;-83
2021/01/18 06:36:11;;;;;;;218.10;100.15;;;-4.30;99.90;;;;;;4996075;28;20038;-83
2021/01/18 06:38:39;;;;;;;242.95;109.30;;;-4.40;99.90;;;;;;4978492;28;20465;-83
2021/01/18 06:41:07;;;;;;;310.25;140.40;;;-4.30;99.90;;;;;;4978576;28;20033;-83
2021/01/18 06:43:34;;;;;;;282.23;129.00;;;-4.20;99.90;;;;;;4978623;28;20375;-83
2021/01/18 06:46:14;;;;;;;244.70;120.22;;;-4.20;99.90;;;;;;4995773;28;20019;-83
2021/01/18 06:48:42;;;;;;;291.92;129.65;;;-4.20;99.90;;;;;;4995875;28;20026;-83
2021/01/18 06:51:17;;;;;;;322.95;144.63;;;-4.20;99.90;;;;;;4978474;28;20025;-83
2021/01/18 06:53:44;;;;;;;269.17;124.93;;;-4.20;99.90;;;;;;4978371;28;20096;-83
2021/01/18 06:56:22;;;;;;;307.38;136.70;;;-4.20;99.90;;;;;;4978156;28;20026;-83
2021/01/18 06:59:13;;;;;;;297.00;130.30;;;-4.20;99.90;;;;;;4978375;28;20022;-83
2021/01/18 07:01:39;;;;;;;;;;;-4.30;99.90;;;;;;4978583;28;20117;-83
2021/01/18 07:04:14;;;;;;;176.05;83.60;;;-4.20;99.90;;;;;;4978017;28;19918;-83
2021/01/18 07:06:44;;;;;;;268.00;116.10;;;-4.30;99.90;;;;;;4978042;28;20022;-84
2021/01/18 07:09:15;;;;;;;290.10;131.88;;;-4.30;99.90;;;;;;4995472;28;20030;-84
2021/01/18 07:11:42;;;;;;;350.40;169.18;;;-4.30;99.90;;;;;;4978007;28;20040;-83
2021/01/18 07:14:12;;;;;;;371.50;185.63;;;-4.30;99.90;;;;;;4995510;28;20482;-83
2021/01/18 07:16:42;;;;;;;395.23;204.60;;;-4.30;99.90;;;;;;4995364;28;20050;-82
2021/01/18 07:19:09;;;;;;;434.25;234.18;;;-4.30;99.90;;;;;;4995395;28;20044;-82
2021/01/18 07:21:46;;;;;;;432.52;234.90;;;-4.30;99.90;;;;;;4977779;28;20126;-83
2021/01/18 07:24:15;;;;;;;469.80;238.80;;;-4.20;99.90;;;;;;4977716;28;20023;-84
2021/01/18 07:26:55;;;;;;;481.80;239.27;;;-4.20;99.90;;;;;;4977588;28;20026;-83
2021/01/18 07:29:24;;;;;;;484.02;235.98;;;-4.10;99.90;;;;;;4995094;28;20033;-84
2021/01/18 07:31:55;;;;;;;557.28;278.42;;;-4.10;99.90;;;;;;4977495;28;20081;-83
2021/01/18 07:34:24;;;;;;;437.45;235.07;;;-4.10;99.90;;;;;;4977545;28;20028;-83
2021/01/18 07:37:06;;;;;;;334.70;165.60;;;-4.10;99.90;;;;;;4995226;28;20031;-84
2021/01/18 07:39:34;;;;;;;303.83;148.93;;;-4.00;99.90;;;;;;4994852;28;20180;-83
2021/01/18 07:42:01;;;;;;;373.25;189.27;;;-3.90;99.90;;;;;;4977438;28;20023;-83
2021/01/18 07:44:37;;;;;;;363.58;183.02;;;-3.90;99.90;;;;;;4977391;28;20030;-83
2021/01/18 07:47:11;;;;;;;364.42;175.93;;;-3.90;99.90;;;;;;4977298;28;20393;-83
2021/01/18 07:49:39;;;;;;;386.27;197.30;;;-3.90;99.90;;;;;;4977439;28;20061;-85
2021/01/18 07:52:11;;;;;;;543.53;234.32;;;-3.90;99.90;;;;;;4994774;28;20037;-83
2021/01/18 07:54:37;;;;;;;417.35;200.68;;;-3.90;99.90;;;;;;4977205;28;20022;-84
2021/01/18 07:57:38;;;;;;;422.42;181.77;;;-3.90;99.90;;;;;;4977070;28;20041;-84
2021/01/18 08:00:26;;;;;;;798.13;339.13;;;-3.80;99.90;;;;;;4946450;28;20076;-84
2021/01/18 08:02:56;;;;;;;567.28;253.85;;;-3.60;99.90;;;;;;4977055;28;20092;-86
2021/01/18 08:05:26;;;;;;;;;;;-3.60;99.90;;;;;;4977498;28;20026;-87
2021/01/18 08:08:03;;;;;;;538.00;219.85;;;-3.50;99.90;;;;;;4977112;28;19906;-86
2021/01/18 08:10:53;;;;;;;405.42;179.13;;;-3.40;99.90;;;;;;4977079;28;20034;-86
2021/01/18 08:13:47;;;;;;;203.73;98.05;;;-3.40;99.90;;;;;;4977246;28;20077;-86
2021/01/18 08:16:20;;;;;;;255.23;112.65;;;-3.30;99.90;;;;;;4976890;28;20030;-86
2021/01/18 08:19:07;;;;;;;313.20;130.57;;;-3.30;99.90;;;;;;4994728;28;20038;-86
2021/01/18 08:21:35;;;;;;;217.23;101.68;;;-3.20;99.90;;;;;;4977525;28;20478;-84
2021/01/18 08:24:05;;;;;;;173.13;87.82;;;-3.20;99.90;;;;;;4976801;28;20026;-85
2021/01/18 08:26:52;;;;;;;205.75;102.95;;;-3.10;99.90;;;;;;4993850;28;20505;-86
2021/01/18 08:29:37;;;;;;;203.70;95.88;;;-3.10;99.90;;;;;;4976751;28;20030;-86
2021/01/18 08:32:24;;;;;;;214.90;102.45;;;-3.10;99.90;;;;;;4994020;28;20551;-85
2021/01/18 08:34:50;;;;;;;182.02;89.07;;;-3.10;99.90;;;;;;4976391;28;20429;-86
2021/01/18 08:37:16;;;;;;;209.27;97.30;;;-3.00;99.90;;;;;;4976330;28;20031;-87
2021/01/18 08:39:52;;;;;;;165.32;85.90;;;-3.00;99.90;;;;;;4976714;28;20093;-84
2021/01/18 08:42:30;;;;;;;180.68;93.22;;;-2.80;99.90;;;;;;4978139;28;20462;-85
2021/01/18 08:44:57;;;;;;;191.23;94.82;;;-2.60;99.90;;;;;;4982750;28;20030;-85
2021/01/18 08:47:40;;;;;;;465.85;263.63;;;-2.60;99.90;;;;;;4982780;28;20038;-83
2021/01/18 08:50:24;;;;;;;176.43;91.55;;;-2.50;99.90;;;;;;4982859;28;20026;-87
2021/01/18 08:52:55;;;;;;;152.75;75.72;;;-2.40;99.90;;;;;;4982372;28;20026;-87
2021/01/18 08:55:30;;;;;;;898.35;608.28;;;-2.50;99.90;;;;;;4999877;28;20022;-86
2021/01/18 08:58:03;;;;;;;275.70;151.30;;;-1.80;99.90;;;;;;5000153;28;20030;-87
2021/01/18 09:00:46;;;;;;;166.18;84.65;;;-2.10;99.90;;;;;;4982655;28;20058;-87
2021/01/18 09:03:20;;;;;;;114.22;59.88;;;-2.20;99.90;;;;;;4982184;28;20508;-87
2021/01/18 09:05:52;;;;;;;127.78;63.83;;;-2.20;99.90;;;;;;4999807;28;20380;-88
2021/01/18 09:08:20;;;;;;;126.60;65.53;;;-2.20;99.90;;;;;;4982536;28;20500;-84
2021/01/18 09:11:07;;;;;;;139.45;66.55;;;-2.20;99.90;;;;;;5000120;28;20026;-85
2021/01/18 09:13:36;;;;;;;126.25;64.47;;;-2.20;99.90;;;;;;4982538;28;20033;-85
2021/01/18 09:16:09;;;;;;;175.90;84.10;;;-2.20;99.90;;;;;;4980546;28;20030;-86
2021/01/18 09:18:36;;;;;;;155.70;75.30;;;-2.10;99.90;;;;;;4998207;28;20026;-83
2021/01/18 09:21:06;;;;;;;165.85;78.80;;;-1.90;99.90;;;;;;4998043;28;20026;-85
2021/01/18 09:23:33;;;;;;;141.30;70.50;;;-1.80;99.90;;;;;;4980660;28;20041;-85
2021/01/18 09:26:20;;;;;;;115.75;60.05;;;-1.60;99.90;;;;;;4978939;28;20030;-86
2021/01/18 09:28:54;;;;;;;101.15;55.63;;;-1.40;99.90;;;;;;4957884;28;20041;-89
2021/01/18 09:31:20;;;;;;;121.88;61.70;;;-1.20;99.90;;;;;;4961254;28;20073;-88
2021/01/18 09:33:47;;;;;;;132.15;64.18;;;-1.30;99.90;;;;;;4963922;28;20033;-87
2021/01/18 09:36:18;;;;;;;106.22;55.95;;;-1.40;99.90;;;;;;4968097;28;20018;-88
2021/01/18 09:38:47;;;;;;;96.05;52.13;;;-1.40;99.90;;;;;;4969065;28;20077;-89
2021/01/18 09:41:14;;;;;;;93.20;49.70;;;-1.30;99.90;;;;;;4959349;28;22030;-87
2021/01/18 09:43:42;;;;;;;91.13;48.90;;;-1.20;99.90;;;;;;4955558;28;20493;-87
2021/01/18 09:46:08;;;;;;;112.82;61.75;;;-1.10;99.90;;;;;;4976019;28;21149;-85
2021/01/18 09:48:34;;;;;;;91.88;50.38;;;-0.50;99.90;;;;;;4965883;28;20134;-86
2021/01/18 09:51:04;;;;;;;108.80;56.55;;;-0.60;99.90;;;;;;4956097;28;20489;-88
2021/01/18 09:53:31;;;;;;;125.30;62.95;;;-0.70;99.90;;;;;;4958800;28;20655;-87
2021/01/18 09:56:07;;;;;;;119.72;61.30;;;-0.80;99.90;;;;;;4973952;28;20049;-88
2021/01/18 09:58:37;;;;;;;168.70;80.20;;;-0.80;99.90;;;;;;4958007;28;20037;-88
2021/01/18 10:01:09;;;;;;;112.50;58.05;;;-0.80;99.90;;;;;;4986409;28;20434;-87
2021/01/18 10:03:36;;;;;;;147.13;78.13;;;-0.80;99.90;;;;;;4969743;28;20490;-87
2021/01/18 10:06:14;;;;;;;123.43;63.58;;;-0.80;99.90;;;;;;4967076;28;20028;-89
2021/01/18 10:08:44;;;;;;;123.38;59.22;;;-0.60;99.90;;;;;;4969646;28;20402;-87
2021/01/18 10:11:10;;;;;;;96.68;49.53;;;-0.60;99.90;;;;;;4970292;28;20077;-89
2021/01/18 10:13:36;;;;;;;80.97;45.15;;;-0.50;99.90;;;;;;4983294;28;20767;-87
2021/01/18 10:16:10;;;;;;;72.90;37.25;;;-0.40;99.90;;;;;;4995283;28;20057;-88
2021/01/18 10:18:45;;;;;;;66.40;36.35;;;-0.50;99.90;;;;;;4971496;28;20527;-90
2021/01/18 10:21:12;;;;;;;62.10;35.72;;;-0.30;99.90;;;;;;4984874;28;20031;-87
2021/01/18 10:23:40;;;;;;;80.63;43.88;;;0.30;99.90;;;;;;4985844;28;20385;-87
2021/01/18 10:26:24;;;;;;;97.15;55.33;;;0.00;99.90;;;;;;4986244;28;20034;-88
2021/01/18 10:28:56;;;;;;;82.60;45.92;;;-0.10;99.90;;;;;;4986222;28;20074;-88
2021/01/18 10:31:25;;;;;;;82.95;43.13;;;-0.10;99.90;;;;;;4983856;28;20022;-87
2021/01/18 10:34:11;;;;;;;92.95;49.67;;;-0.20;99.90;;;;;;4969458;28;20022;-88
2021/01/18 10:36:37;;;;;;;68.05;38.85;;;-0.20;99.90;;;;;;4966698;28;20069;-88
2021/01/18 10:39:04;;;;;;;56.65;34.42;;;-0.20;99.90;;;;;;4984158;28;20018;-87
2021/01/18 10:41:32;;;;;;;74.40;39.08;;;-0.20;99.90;;;;;;4965510;28;20022;-87
2021/01/18 10:44:06;;;;;;;75.32;39.53;;;-0.10;99.90;;;;;;4968694;28;20022;-88
2021/01/18 10:46:33;;;;;;;92.50;43.75;;;-0.10;99.90;;;;;;4980218;28;20054;-88
2021/01/18 10:49:00;;;;;;;70.35;43.22;;;-0.10;99.90;;;;;;4966672;28;20423;-87
2021/01/18 10:51:27;;;;;;;129.00;70.38;;;-0.10;99.90;;;;;;4983704;28;20062;-87
2021/01/18 10:54:00;;;;;;;55.10;30.80;;;-0.10;99.90;;;;;;4966558;28;20031;-86
2021/01/18 10:56:34;;;;;;;71.57;41.10;;;-0.10;99.90;;;;;;4967592;28;20061;-89
2021/01/18 10:59:01;;;;;;;68.97;37.35;;;0.10;99.90;;;;;;4976830;28;20454;-88
2021/01/18 11:01:27;;;;;;;99.00;49.22;;;0.10;99.90;;;;;;4983772;28;20038;-89
2021/01/18 11:04:02;;;;;;;79.57;41.08;;;0.20;99.90;;;;;;4979886;28;20076;-88
2021/01/18 11:06:35;;;;;;;104.43;51.95;;;0.20;99.90;;;;;;4991103;28;20101;-85
2021/01/18 11:09:02;;;;;;;83.43;39.38;;;0.40;99.90;;;;;;4996269;28;20025;-87
2021/01/18 11:11:29;;;;;;;82.28;40.92;;;0.50;99.90;;;;;;4997452;28;20027;-86
2021/01/18 11:14:03;;;;;;;76.85;40.97;;;0.40;99.90;;;;;;4968529;28;20105;-86
2021/01/18 11:16:30;;;;;;;69.03;36.92;;;1.00;99.90;;;;;;4965788;28;20393;-87
2021/01/18 11:19:03;;;;;;;88.85;50.20;;;0.80;99.90;;;;;;4967615;28;20042;-86
2021/01/18 11:21:29;;;;;;;74.95;37.80;;;0.70;99.90;;;;;;4982930;28;20053;-84
2021/01/18 11:23:55;;;;;;;73.40;38.33;;;1.30;99.90;;;;;;4985029;28;20820;-85
2021/01/18 11:26:21;;;;;;;91.75;46.38;;;1.00;99.90;;;;;;4965433;28;20030;-87
2021/01/18 11:28:47;;;;;;;69.57;40.63;;;1.20;99.90;;;;;;4969004;28;20022;-88
2021/01/18 11:31:14;;;;;;;110.78;53.17;;;1.00;99.90;;;;;;4966216;28;20037;-88
2021/01/18 11:33:40;;;;;;;103.85;49.47;;;0.80;99.90;;;;;;4984071;28;20022;-87
2021/01/18 11:36:06;;;;;;;118.00;53.97;;;0.70;99.90;;;;;;4987544;28;20025;-87
2021/01/18 11:38:32;;;;;;;117.07;57.75;;;0.70;99.90;;;;;;4984547;28;20429;-86
2021/01/18 11:40:58;;;;;;;86.53;46.97;;;0.60;99.90;;;;;;4996815;28;20026;-87
2021/01/18 11:43:24;;;;;;;85.85;46.85;;;0.50;99.90;;;;;;4996636;28;20021;-84
2021/01/18 11:45:50;;;;;;;99.10;56.45;;;0.50;99.90;;;;;;4986062;28;20045;-87
2021/01/18 11:48:16;;;;;;;283.95;136.20;;;0.50;99.90;;;;;;4998364;28;20037;-87
2021/01/18 11:50:42;;;;;;;158.38;84.55;;;0.50;99.90;;;;;;4978322;28;20129;-89
2021/01/18 11:53:09;;;;;;;69.93;44.80;;;0.50;99.90;;;;;;4978030;28;20541;-87
2021/01/18 11:55:35;;;;;;;70.35;41.95;;;0.40;99.90;;;;;;4979786;28;20033;-87
2021/01/18 11:58:00;;;;;;;68.22;38.60;;;0.40;99.90;;;;;;4991891;28;20492;-86
2021/01/18 12:00:28;;;;;;;127.95;66.38;;;0.40;99.90;;;;;;4979294;28;20129;-87
2021/01/18 12:02:59;;;;;;;99.22;57.78;;;0.50;99.90;;;;;;4967264;28;20043;-85
2021/01/18 12:05:26;;;;;;;93.60;51.55;;;0.50;99.90;;;;;;4984103;28;20057;-84
2021/01/18 12:07:53;;;;;;;91.80;50.28;;;0.70;99.90;;;;;;4983201;28;20019;-84
2021/01/18 12:10:19;;;;;;;77.72;44.25;;;0.70;99.90;;;;;;4967238;28;20380;-84
2021/01/18 12:12:45;;;;;;;113.45;41.95;;;0.70;99.90;;;;;;4982511;28;20022;-79
2021/01/18 12:15:11;;;;;;;116.53;61.60;;;0.70;99.90;;;;;;4982358;28;20497;-81
2021/01/18 12:17:39;;;;;;;90.25;39.15;;;1.00;99.90;;;;;;4984937;28;20481;-87
2021/01/18 12:20:07;;;;;;;187.07;83.18;;;2.30;99.90;;;;;;4975895;28;20033;-85
2021/01/18 12:22:33;;;;;;;92.95;48.15;;;1.80;99.90;;;;;;4963369;28;20489;-86
2021/01/18 12:24:59;;;;;;;77.07;41.42;;;1.50;99.90;;;;;;4982165;28;20024;-86
2021/01/18 12:27:25;;;;;;;73.97;42.88;;;1.30;99.90;;;;;;4960671;28;20026;-85
2021/01/18 12:29:50;;;;;;;74.95;41.92;;;1.20;99.90;;;;;;4980863;28;20109;-86
2021/01/18 12:32:16;;;;;;;97.70;47.75;;;1.10;99.90;;;;;;4964759;28;20030;-88
2021/01/18 12:34:42;;;;;;;79.85;42.65;;;1.20;99.90;;;;;;4984961;28;20033;-87
2021/01/18 12:37:08;;;;;;;82.50;42.03;;;1.10;99.90;;;;;;4969125;28;20109;-88
2021/01/18 12:39:34;;;;;;;63.00;33.83;;;0.90;99.90;;;;;;4981606;28;20022;-88